Wylliesburg, Virginia
Current Conditions -  °F | °C
As of 3:15 PM on Thursday 29 Jan 2015 (Local Time) from KCXE Reporting Station
Broken Clouds Broken Clouds  
Wind Chill: 42°   Ceiling: 12000
Heat Index: 46°   Visibility: 10mi
Dew Point: 17°   Wind: 7mph
Humidity: 32%   Direction: 160°SSE
Pressure: 30.13"   Gusts: NA
Location:  36.86°N, 78.59°W
Report Text: KCXE 292015Z AUTO 16006KT 10SM SCT090 BKN120 08/M08 A3013 RMK AO1 T00761084
Loading
Personal Weather Stations






























Interactive Weather Map New forecast layout! Learn more

10-Day Weather Forecast

Advertisements
Track Severe Weather on mobile